createdAt,value
2023-01-02T00:01:16.442Z,12.37
2023-01-02T00:03:44.717Z,10.93
2023-01-02T00:06:13.092Z,11.57
2023-01-02T00:08:42.554Z,12.40
2023-01-02T00:11:10.578Z,12.60
2023-01-02T00:13:38.588Z,12.07
2023-01-02T00:16:07.607Z,12.57
2023-01-02T00:18:35.693Z,13.90
2023-01-02T00:21:04.806Z,12.87
2023-01-02T00:23:32.992Z,12.47
2023-01-02T00:26:02.578Z,13.00
2023-01-02T00:28:30.921Z,14.82
2023-01-02T00:30:59.711Z,13.80
2023-01-02T00:33:27.745Z,13.98
2023-01-02T00:35:55.788Z,13.25
2023-01-02T00:38:23.891Z,13.27
2023-01-02T00:40:51.969Z,14.30
2023-01-02T00:43:21.302Z,13.90
2023-01-02T00:45:49.761Z,11.13
2023-01-02T00:48:17.950Z,11.63
2023-01-02T00:50:46.151Z,11.23
2023-01-02T00:53:14.194Z,9.77
2023-01-02T00:55:42.307Z,11.15
2023-01-02T00:58:10.272Z,11.85
2023-01-02T01:00:39.896Z,10.85
2023-01-02T01:03:08.492Z,11.05
2023-01-02T01:05:39.764Z,12.73
2023-01-02T01:08:08.009Z,11.90
2023-01-02T01:10:38.038Z,12.07
2023-01-02T01:13:06.821Z,10.95
2023-01-02T01:15:35.588Z,10.27
2023-01-02T01:18:05.229Z,10.80
2023-01-02T01:20:33.247Z,10.40
2023-01-02T01:23:02.635Z,11.95
2023-01-02T01:25:30.689Z,13.18
2023-01-02T01:27:58.666Z,10.90
2023-01-02T01:30:26.723Z,11.23
2023-01-02T01:32:54.782Z,11.35
2023-01-02T01:35:24.240Z,11.55
2023-01-02T01:37:52.853Z,12.30
2023-01-02T01:40:20.870Z,10.98
2023-01-02T01:42:50.375Z,10.52
2023-01-02T01:45:19.090Z,10.20
2023-01-02T01:47:53.413Z,10.05
2023-01-02T01:50:29.956Z,11.55
2023-01-02T01:53:02.111Z,10.90
2023-01-02T01:55:34.096Z,11.68
2023-01-02T01:58:06.732Z,11.95
2023-01-02T02:00:35.375Z,11.15
2023-01-02T02:03:08.513Z,12.00
2023-01-02T02:05:38.522Z,10.63
2023-01-02T02:08:14.367Z,11.00
2023-01-02T02:10:42.848Z,11.65
2023-01-02T02:13:12.112Z,11.60
2023-01-02T02:15:48.845Z,10.88
2023-01-02T02:18:30.918Z,12.10
2023-01-02T02:21:12.079Z,10.82
2023-01-02T02:24:10.546Z,11.85
2023-01-02T02:27:10.243Z,10.00
2023-01-02T02:30:09.367Z,10.10
2023-01-02T02:33:15.430Z,10.32
2023-01-02T02:35:54.644Z,11.13
2023-01-02T02:38:36.652Z,10.60
2023-01-02T02:41:21.702Z,9.60
2023-01-02T02:44:00.775Z,10.27
2023-01-02T02:46:38.822Z,10.65
2023-01-02T02:49:11.858Z,10.40
2023-01-02T02:51:49.738Z,9.20
2023-01-02T02:54:23.928Z,9.07
2023-01-02T02:56:54.126Z,9.13
2023-01-02T02:59:22.684Z,9.60
2023-01-02T03:01:52.217Z,8.98
2023-01-02T03:04:22.263Z,8.65
2023-01-02T03:07:04.580Z,8.75
2023-01-02T03:09:40.123Z,9.65
2023-01-02T03:12:20.123Z,9.52
2023-01-02T03:14:57.591Z,9.15
2023-01-02T03:17:33.874Z,9.48
2023-01-02T03:20:07.466Z,10.40
2023-01-02T03:22:40.605Z,10.57
2023-01-02T03:25:12.104Z,10.52
2023-01-02T03:27:45.871Z,9.52
2023-01-02T03:30:18.459Z,8.82
2023-01-02T03:32:51.699Z,9.70
2023-01-02T03:35:26.174Z,9.95
2023-01-02T03:37:57.925Z,9.10
2023-01-02T03:40:31.565Z,8.95
2023-01-02T03:43:03.613Z,9.70
2023-01-02T03:45:35.531Z,9.98
2023-01-02T03:48:11.495Z,10.73
2023-01-02T03:50:47.830Z,10.30
2023-01-02T03:53:16.555Z,10.90
2023-01-02T03:55:54.264Z,10.40
2023-01-02T03:58:34.220Z,10.45
2023-01-02T04:01:07.559Z,9.30
2023-01-02T04:03:41.598Z,9.15
2023-01-02T04:06:14.829Z,8.90
2023-01-02T04:08:48.819Z,8.30
2023-01-02T04:11:20.358Z,7.60
2023-01-02T04:13:51.781Z,7.78
2023-01-02T04:16:23.769Z,7.38
2023-01-02T04:18:58.473Z,8.20
2023-01-02T04:21:30.237Z,7.85
2023-01-02T04:24:03.599Z,8.13
2023-01-02T04:26:36.435Z,8.18
2023-01-02T04:29:04.841Z,7.75
2023-01-02T04:31:38.147Z,7.40
2023-01-02T04:34:10.918Z,7.70
2023-01-02T04:36:39.961Z,7.25
2023-01-02T04:39:08.247Z,7.97
2023-01-02T04:41:38.022Z,8.00
2023-01-02T04:44:06.458Z,8.48
2023-01-02T04:46:35.071Z,8.13
2023-01-02T04:49:03.221Z,10.00
2023-01-02T04:51:32.558Z,9.82
2023-01-02T04:54:00.577Z,10.70
2023-01-02T04:56:28.702Z,11.23
2023-01-02T04:58:56.724Z,10.50
2023-01-02T05:01:24.899Z,12.00
2023-01-02T05:03:53.670Z,11.90
2023-01-02T05:06:21.862Z,13.10
2023-01-02T05:08:51.228Z,10.88
2023-01-02T05:11:21.361Z,9.20
2023-01-02T05:13:49.541Z,8.98
2023-01-02T05:16:17.841Z,10.43
2023-01-02T05:18:45.952Z,8.68
2023-01-02T05:21:28.979Z,9.90
2023-01-02T05:24:00.232Z,9.88
2023-01-02T05:26:30.774Z,9.98
2023-01-02T05:28:58.795Z,10.55
2023-01-02T05:31:27.772Z,10.23
2023-01-02T05:33:57.710Z,9.88
2023-01-02T05:36:27.007Z,8.55
2023-01-02T05:38:55.595Z,8.30
2023-01-02T05:41:25.278Z,9.45
2023-01-02T05:43:53.327Z,10.60
2023-01-02T05:46:22.603Z,9.70
2023-01-02T05:48:50.720Z,9.32
2023-01-02T05:51:20.576Z,8.38
2023-01-02T05:53:48.780Z,9.10
2023-01-02T05:56:19.034Z,10.02
2023-01-02T05:58:50.601Z,8.80
2023-01-02T06:01:47.068Z,10.30
2023-01-02T06:04:19.634Z,9.48
2023-01-02T06:06:49.567Z,9.65
2023-01-02T06:09:18.776Z,9.52
2023-01-02T06:11:47.018Z,9.52
2023-01-02T06:14:16.403Z,9.55
2023-01-02T06:16:44.562Z,9.90
2023-01-02T06:19:12.658Z,9.80
2023-01-02T06:21:40.722Z,9.07
2023-01-02T06:24:08.982Z,10.07
2023-01-02T06:26:37.060Z,8.70
2023-01-02T06:29:05.448Z,10.52
2023-01-02T06:31:36.262Z,11.23
2023-01-02T06:34:07.102Z,13.18
2023-01-02T06:36:35.706Z,11.90
2023-01-02T06:39:04.005Z,9.90
2023-01-02T06:41:32.238Z,9.18
2023-01-02T06:44:00.366Z,8.73
2023-01-02T06:46:29.099Z,8.75
2023-01-02T06:48:58.532Z,7.65
2023-01-02T06:51:26.624Z,10.20
2023-01-02T06:53:55.519Z,10.48
2023-01-02T06:56:24.289Z,9.88
2023-01-02T06:58:52.249Z,9.70
2023-01-02T07:01:21.708Z,9.65
2023-01-02T07:03:50.601Z,11.07
2023-01-02T07:06:22.342Z,11.27
2023-01-02T07:08:51.422Z,11.63
2023-01-02T07:11:21.738Z,11.05
2023-01-02T07:13:52.667Z,11.30
2023-01-02T07:16:22.757Z,12.65
2023-01-02T07:18:52.405Z,11.35
2023-01-02T07:21:22.438Z,11.10
2023-01-02T07:23:50.504Z,12.20
2023-01-02T07:26:19.151Z,12.55
2023-01-02T07:28:47.651Z,12.40
2023-01-02T07:31:18.097Z,11.73
2023-01-02T07:33:46.722Z,11.02
2023-01-02T07:36:16.260Z,11.43
2023-01-02T07:38:50.520Z,9.70
2023-01-02T07:41:20.481Z,9.75
2023-01-02T07:43:49.146Z,8.75
2023-01-02T07:46:19.807Z,9.93
2023-01-02T07:48:50.551Z,9.35
2023-01-02T07:51:26.404Z,10.52
2023-01-02T07:53:58.061Z,10.02
2023-01-02T07:56:26.399Z,10.85
2023-01-02T07:58:54.484Z,11.55
2023-01-02T08:01:22.705Z,10.77
2023-01-02T08:03:50.958Z,10.02
2023-01-02T08:06:19.539Z,12.20
2023-01-02T08:08:48.109Z,11.38
2023-01-02T08:11:19.335Z,11.40
2023-01-02T08:13:48.321Z,11.60
2023-01-02T08:16:19.707Z,11.27
2023-01-02T08:18:49.056Z,11.30
2023-01-02T08:21:17.040Z,12.75
2023-01-02T08:23:45.172Z,11.48
2023-01-02T08:26:13.215Z,12.02
2023-01-02T08:28:43.124Z,13.35
2023-01-02T08:31:12.647Z,13.20
2023-01-02T08:33:40.838Z,12.63
2023-01-02T08:36:33.824Z,11.75
2023-01-02T08:39:01.912Z,11.82
2023-01-02T08:41:34.440Z,12.00
2023-01-02T08:44:04.469Z,12.27
2023-01-02T08:46:40.064Z,10.65
2023-01-02T08:49:10.594Z,9.82
2023-01-02T08:51:38.602Z,10.02
2023-01-02T08:54:06.841Z,10.57
2023-01-02T08:56:35.948Z,10.80
2023-01-02T08:59:07.880Z,9.60
2023-01-02T09:01:36.796Z,9.95
2023-01-02T09:04:12.023Z,10.25
2023-01-02T09:06:41.682Z,10.50
2023-01-02T09:09:12.440Z,10.57
2023-01-02T09:11:45.264Z,11.25
2023-01-02T09:14:14.779Z,9.93
2023-01-02T09:16:42.976Z,10.52
2023-01-02T09:19:13.156Z,11.00
2023-01-02T09:21:41.455Z,12.95
2023-01-02T09:24:10.208Z,13.48
2023-01-02T09:26:41.912Z,15.80
2023-01-02T09:29:10.939Z,14.65
2023-01-02T09:31:41.040Z,16.15
2023-01-02T09:34:09.220Z,18.48
2023-01-02T09:36:37.438Z,18.00
2023-01-02T09:39:09.763Z,17.70
2023-01-02T09:41:39.970Z,18.87
2023-01-02T09:44:16.026Z,19.10
2023-01-02T09:46:51.658Z,19.13
2023-01-02T09:49:23.007Z,17.77
2023-01-02T09:51:51.781Z,18.50
2023-01-02T09:54:33.162Z,19.87
2023-01-02T09:57:45.557Z,20.27
2023-01-02T10:00:18.417Z,19.33
2023-01-02T10:03:08.016Z,20.33
2023-01-02T10:06:01.251Z,19.83
2023-01-02T10:08:38.378Z,20.37
2023-01-02T10:11:17.068Z,19.27
2023-01-02T10:14:18.286Z,20.67
2023-01-02T10:16:43.859Z,20.53
2023-01-02T10:19:23.752Z,21.10
2023-01-02T10:21:57.053Z,20.30
2023-01-02T10:24:37.565Z,20.67
2023-01-02T10:27:07.024Z,20.70
2023-01-02T10:29:40.351Z,21.40
2023-01-02T10:32:14.445Z,21.33
2023-01-02T10:34:50.509Z,21.83
2023-01-02T10:37:19.262Z,23.30
2023-01-02T10:39:50.747Z,22.03
2023-01-02T10:42:19.173Z,21.50
2023-01-02T10:44:48.166Z,21.83
2023-01-02T10:47:22.792Z,20.83
2023-01-02T10:49:54.273Z,21.80
2023-01-02T10:52:28.341Z,20.77
2023-01-02T10:55:00.502Z,20.13
2023-01-02T10:57:41.097Z,19.87
2023-01-02T11:00:28.400Z,19.53
2023-01-02T11:02:59.315Z,20.03
2023-01-02T11:05:31.194Z,19.43
2023-01-02T11:07:59.928Z,18.83
2023-01-02T11:10:30.848Z,20.70
2023-01-02T11:13:03.463Z,19.30
2023-01-02T11:15:34.727Z,18.60
2023-01-02T11:18:04.461Z,19.40
2023-01-02T11:20:36.745Z,19.00
2023-01-02T11:23:35.447Z,19.80
2023-01-02T11:26:04.842Z,17.27
2023-01-02T11:28:35.611Z,18.07
2023-01-02T11:31:05.792Z,18.67
2023-01-02T11:33:35.489Z,18.07
2023-01-02T11:36:16.884Z,18.33
2023-01-02T11:38:46.617Z,17.10
2023-01-02T11:41:49.136Z,16.73
2023-01-02T11:44:22.146Z,16.13
2023-01-02T11:46:51.880Z,15.87
2023-01-02T11:49:22.229Z,16.90
2023-01-02T11:51:57.822Z,16.30
2023-01-02T11:54:41.606Z,15.93
2023-01-02T11:57:18.965Z,15.67
2023-01-02T11:59:50.003Z,14.87
2023-01-02T12:02:25.420Z,13.77
2023-01-02T12:04:53.618Z,15.07
2023-01-02T12:07:43.233Z,14.20
2023-01-02T12:10:30.460Z,14.60
2023-01-02T12:13:13.604Z,14.20
2023-01-02T12:16:05.926Z,15.27
2023-01-02T12:18:46.339Z,15.27
2023-01-02T12:21:22.685Z,16.20
2023-01-02T12:24:28.055Z,16.00
2023-01-02T12:27:05.096Z,15.37
2023-01-02T12:29:53.830Z,15.40
2023-01-02T12:32:45.468Z,15.67
2023-01-02T12:35:29.186Z,15.93
2023-01-02T12:37:59.618Z,15.83
2023-01-02T12:40:47.243Z,16.23
2023-01-02T12:43:49.311Z,15.80
2023-01-02T12:46:29.147Z,15.00
2023-01-02T12:49:11.751Z,18.30
2023-01-02T12:51:46.919Z,18.27
2023-01-02T12:54:44.335Z,17.60
2023-01-02T12:57:24.399Z,16.20
2023-01-02T13:00:07.356Z,15.90
2023-01-02T13:03:20.187Z,18.10
2023-01-02T13:05:56.038Z,17.10
2023-01-02T13:08:28.911Z,17.30
2023-01-02T13:11:00.380Z,16.90
2023-01-02T13:13:36.102Z,16.90
2023-01-02T13:16:19.009Z,17.00
2023-01-02T13:19:10.416Z,16.90
2023-01-02T13:21:45.135Z,17.20
2023-01-02T13:24:17.625Z,16.50
2023-01-02T13:26:45.857Z,15.90
2023-01-02T13:29:27.271Z,16.00
2023-01-02T13:31:57.005Z,16.53
2023-01-02T13:34:29.082Z,16.50
2023-01-02T13:37:03.295Z,16.47
2023-01-02T13:39:37.488Z,17.17
2023-01-02T13:42:29.928Z,16.97
2023-01-02T13:45:02.237Z,16.60
2023-01-02T13:47:34.577Z,17.00
2023-01-02T13:50:10.520Z,17.83
2023-01-02T13:52:41.154Z,18.20
2023-01-02T13:55:35.208Z,17.00
2023-01-02T13:58:30.954Z,17.70
2023-01-02T14:01:32.625Z,20.33
2023-01-02T14:04:30.269Z,21.93
2023-01-02T14:07:39.411Z,19.00
2023-01-02T14:10:44.981Z,17.30
2023-01-02T14:13:29.714Z,17.43
2023-01-02T14:16:31.317Z,18.37
2023-01-02T14:19:20.664Z,18.93
2023-01-02T14:21:53.850Z,17.50
2023-01-02T14:24:29.679Z,17.50
2023-01-02T14:27:00.739Z,16.73
2023-01-02T14:29:30.572Z,18.13
2023-01-02T14:32:03.067Z,17.20
2023-01-02T14:34:34.485Z,17.40
2023-01-02T14:37:04.025Z,17.57
2023-01-02T14:39:36.904Z,16.10
2023-01-02T14:42:42.368Z,16.60
2023-01-02T14:45:17.297Z,17.03
2023-01-02T14:47:49.965Z,15.80
2023-01-02T14:50:24.364Z,16.37
2023-01-02T14:53:00.339Z,16.90
2023-01-02T14:55:39.443Z,18.70
2023-01-02T14:58:17.559Z,18.33
2023-01-02T15:00:47.988Z,20.20
2023-01-02T15:03:22.626Z,19.07
2023-01-02T15:05:57.411Z,20.73
2023-01-02T15:08:35.933Z,22.60
2023-01-02T15:11:33.122Z,22.70
2023-01-02T15:14:03.968Z,22.50
2023-01-02T15:16:41.763Z,22.70
2023-01-02T15:19:19.904Z,21.80
2023-01-02T15:21:50.553Z,20.03
2023-01-02T15:24:22.781Z,22.10
2023-01-02T15:26:55.188Z,19.73
2023-01-02T15:29:28.427Z,19.50
2023-01-02T15:31:58.486Z,18.60
2023-01-02T15:34:28.982Z,18.77
2023-01-02T15:37:01.905Z,17.47
2023-01-02T15:39:34.981Z,16.63
2023-01-02T15:42:09.951Z,17.00
2023-01-02T15:44:58.186Z,15.93
2023-01-02T15:47:28.501Z,16.80
2023-01-02T15:49:58.540Z,16.90
2023-01-02T15:52:33.542Z,16.50
2023-01-02T15:55:01.789Z,16.63
2023-01-02T15:57:32.950Z,17.80
2023-01-02T16:00:01.571Z,18.43
2023-01-02T16:02:35.291Z,17.57
2023-01-02T16:05:09.024Z,19.17
2023-01-02T16:07:39.125Z,19.97
2023-01-02T16:10:09.725Z,20.50
2023-01-02T16:12:38.079Z,20.17
2023-01-02T16:15:08.181Z,20.70
2023-01-02T16:17:38.925Z,20.60
2023-01-02T16:20:17.399Z,19.93
2023-01-02T16:22:49.905Z,21.90
2023-01-02T16:25:21.599Z,21.33
2023-01-02T16:27:53.890Z,21.53
2023-01-02T16:30:37.874Z,20.23
2023-01-02T16:33:22.878Z,19.00
2023-01-02T16:36:00.193Z,19.50
2023-01-02T16:38:31.220Z,19.97
2023-01-02T16:41:04.399Z,20.03
2023-01-02T16:43:41.323Z,20.60
2023-01-02T16:46:15.374Z,20.10
2023-01-02T16:48:44.971Z,21.57
2023-01-02T16:51:16.551Z,20.00
2023-01-02T16:53:46.728Z,20.17
2023-01-02T16:56:15.896Z,20.33
2023-01-02T16:58:44.310Z,19.50
2023-01-02T17:01:14.584Z,20.07
2023-01-02T17:03:43.459Z,22.50
2023-01-02T17:06:14.396Z,22.10
2023-01-02T17:08:43.342Z,21.37
2023-01-02T17:11:15.658Z,21.07
2023-01-02T17:13:43.789Z,22.97
2023-01-02T17:16:12.338Z,22.87
2023-01-02T17:18:43.660Z,23.03
2023-01-02T17:21:12.873Z,20.80
2023-01-02T17:23:41.324Z,20.53
2023-01-02T17:26:09.793Z,20.10
2023-01-02T17:28:39.187Z,18.83
2023-01-02T17:31:07.543Z,19.93
2023-01-02T17:33:35.612Z,19.80
2023-01-02T17:36:03.911Z,19.10
2023-01-02T17:38:32.159Z,17.77
2023-01-02T17:41:00.845Z,19.63
2023-01-02T17:43:28.902Z,19.37
2023-01-02T17:45:58.381Z,19.70
2023-01-02T17:48:26.511Z,19.63
2023-01-02T17:50:55.097Z,18.93
2023-01-02T17:53:23.435Z,20.60
2023-01-02T17:56:20.547Z,18.40
2023-01-02T17:58:41.769Z,19.40
2023-01-02T18:01:16.909Z,20.43
2023-01-02T18:03:45.254Z,19.90
2023-01-02T18:06:13.662Z,20.43
2023-01-02T18:08:42.199Z,21.00
2023-01-02T18:11:13.755Z,20.90
2023-01-02T18:13:44.185Z,20.60
2023-01-02T18:16:42.175Z,21.50
2023-01-02T18:19:14.980Z,22.87
2023-01-02T18:21:44.998Z,20.97
2023-01-02T18:24:14.739Z,21.20
2023-01-02T18:26:42.800Z,20.73
2023-01-02T18:29:19.244Z,18.80
2023-01-02T18:31:49.053Z,20.50
2023-01-02T18:34:46.216Z,19.60
2023-01-02T18:37:19.278Z,22.40
2023-01-02T18:39:47.634Z,21.20
2023-01-02T18:42:20.465Z,21.90
2023-01-02T18:44:49.432Z,20.83
2023-01-02T18:47:27.067Z,21.17
2023-01-02T18:49:57.782Z,21.27
2023-01-02T18:52:28.133Z,20.83
2023-01-02T18:55:02.498Z,21.17
2023-01-02T18:57:34.259Z,20.20
2023-01-02T19:00:15.957Z,18.60
2023-01-02T19:02:55.787Z,20.53
2023-01-02T19:05:27.144Z,20.97
2023-01-02T19:08:03.228Z,20.40
2023-01-02T19:10:38.737Z,20.08
2023-01-02T19:13:16.528Z,19.50
2023-01-02T19:15:46.382Z,20.45
2023-01-02T19:18:33.738Z,20.93
2023-01-02T19:21:25.452Z,20.42
2023-01-02T19:23:59.228Z,20.27
2023-01-02T19:26:30.784Z,20.85
2023-01-02T19:29:01.044Z,19.37
2023-01-02T19:31:41.980Z,20.63
2023-01-02T19:34:28.605Z,18.83
2023-01-02T19:37:13.723Z,18.73
2023-01-02T19:39:45.336Z,20.08
2023-01-02T19:42:23.401Z,19.50
2023-01-02T19:44:53.906Z,19.93
2023-01-02T19:47:24.094Z,19.37
2023-01-02T19:49:53.893Z,20.10
2023-01-02T19:52:23.140Z,20.10
2023-01-02T19:54:52.533Z,19.43
2023-01-02T19:57:21.181Z,21.02
2023-01-02T19:59:51.483Z,19.30
2023-01-02T20:02:22.523Z,19.80
2023-01-02T20:04:53.145Z,19.30
2023-01-02T20:07:23.734Z,19.00
2023-01-02T20:09:52.733Z,19.05
2023-01-02T20:12:40.810Z,19.60
2023-01-02T20:15:11.534Z,20.10
2023-01-02T20:17:40.358Z,19.80
2023-01-02T20:20:11.076Z,20.35
2023-01-02T20:22:41.321Z,22.30
2023-01-02T20:25:09.956Z,22.03
2023-01-02T20:27:38.169Z,22.10
2023-01-02T20:30:08.759Z,20.37
2023-01-02T20:32:37.191Z,19.27
2023-01-02T20:35:06.125Z,19.73
2023-01-02T20:37:34.388Z,19.55
2023-01-02T20:40:03.868Z,20.40
2023-01-02T20:42:32.891Z,19.52
2023-01-02T20:45:01.018Z,19.00
2023-01-02T20:47:29.431Z,17.60
2023-01-02T20:49:57.535Z,17.83
2023-01-02T20:52:25.808Z,19.08
2023-01-02T20:54:53.860Z,18.53
2023-01-02T20:57:23.507Z,19.07
2023-01-02T20:59:51.663Z,18.50
2023-01-02T21:02:19.953Z,19.50
2023-01-02T21:04:48.157Z,17.90
2023-01-02T21:07:16.190Z,19.00
2023-01-02T21:09:44.439Z,19.13
2023-01-02T21:12:26.421Z,19.47
2023-01-02T21:14:55.881Z,19.55
2023-01-02T21:17:24.071Z,19.93
2023-01-02T21:19:52.216Z,19.20
2023-01-02T21:22:20.235Z,18.08
2023-01-02T21:24:48.922Z,18.93
2023-01-02T21:27:16.886Z,19.40
2023-01-02T21:29:46.021Z,18.40
2023-01-02T21:32:15.671Z,19.80
2023-01-02T21:34:43.832Z,20.07
2023-01-02T21:37:12.055Z,20.35
2023-01-02T21:39:40.057Z,20.30
2023-01-02T21:42:16.970Z,20.17
2023-01-02T21:44:47.098Z,19.33
2023-01-02T21:47:18.235Z,21.03
2023-01-02T21:49:46.408Z,18.70
2023-01-02T21:52:14.882Z,19.60
2023-01-02T21:54:43.048Z,19.60
2023-01-02T21:57:11.460Z,19.87
2023-01-02T21:59:39.699Z,19.93
2023-01-02T22:02:07.825Z,19.57
2023-01-02T22:04:37.570Z,20.30
2023-01-02T22:07:31.222Z,20.60
2023-01-02T22:09:53.759Z,18.83
2023-01-02T22:12:21.811Z,18.30
2023-01-02T22:14:49.825Z,19.80
2023-01-02T22:17:18.033Z,19.37
2023-01-02T22:19:47.451Z,19.07
2023-01-02T22:22:16.029Z,18.27
2023-01-02T22:24:44.999Z,18.50
2023-01-02T22:27:14.987Z,19.50
2023-01-02T22:30:19.535Z,18.33
2023-01-02T22:32:33.785Z,17.60
2023-01-02T22:35:06.090Z,18.63
2023-01-02T22:37:34.333Z,19.30
2023-01-02T22:40:02.567Z,18.57
2023-01-02T22:43:04.481Z,18.10
2023-01-02T22:46:04.110Z,19.30
2023-01-02T22:48:35.202Z,19.00
2023-01-02T22:51:08.487Z,17.97
2023-01-02T22:53:38.324Z,19.40
2023-01-02T22:56:13.185Z,19.23
2023-01-02T22:58:41.301Z,18.03
2023-01-02T23:01:16.398Z,19.00
2023-01-02T23:03:46.689Z,18.30
2023-01-02T23:06:21.913Z,17.50
2023-01-02T23:08:50.712Z,19.57
2023-01-02T23:11:19.794Z,19.40
2023-01-02T23:13:54.538Z,19.97
2023-01-02T23:16:41.919Z,17.87
2023-01-02T23:19:15.969Z,18.23
2023-01-02T23:21:47.310Z,20.30
2023-01-02T23:24:18.055Z,19.60
2023-01-02T23:26:48.805Z,19.10
2023-01-02T23:29:19.048Z,19.83
2023-01-02T23:31:48.349Z,19.07
2023-01-02T23:34:18.586Z,20.53
2023-01-02T23:36:48.098Z,21.00
2023-01-02T23:39:19.565Z,19.43
2023-01-02T23:41:48.807Z,19.87
2023-01-02T23:44:17.977Z,19.30
2023-01-02T23:46:47.298Z,19.90
2023-01-02T23:49:16.167Z,19.73
2023-01-02T23:51:44.743Z,18.20
2023-01-02T23:54:16.602Z,18.00
2023-01-02T23:56:47.493Z,17.97
2023-01-02T23:59:18.298Z,20.33
